Terminal Aerodrome Forecast
Issued by NWS

Home | Current Version | Previous Version | Text Only | Print | Product List | Glossary On
Versions: 1 2 3 4 5 6 7 8 9 10 11 12 13 14 15
000
FTUS42 KMHX 010500 RRA
TAFOAJ
TAF
KOAJ 010553Z 0106/0206 07005KT P6SM VCSH SCT025 BKN045
     FM011200 07007KT P6SM VCTS SCT025 BKN035CB
     FM011600 10010KT 5SM -RA VCTS BKN025CB
      AMD LTD TO CLD VIS AND WIND=

USA.gov is the U.S. government's official web portal to all federal, state and local government web resources and services.